sensor_id;sensor_type;location;lat;lon;timestamp;pressure;altitude;pressure_sealevel;temperature;humidity
34297;BME280;20564;42.902;25.336;2022-12-18T00:01:30;97980.19;;;9.04;100.00
34297;BME280;20564;42.902;25.336;2022-12-18T00:03:58;97988.16;;;9.02;100.00
34297;BME280;20564;42.902;25.336;2022-12-18T00:06:28;97993.25;;;8.92;100.00
34297;BME280;20564;42.902;25.336;2022-12-18T00:08:57;97985.59;;;8.89;100.00
34297;BME280;20564;42.902;25.336;2022-12-18T00:11:27;97995.06;;;8.79;100.00
34297;BME280;20564;42.902;25.336;2022-12-18T00:13:56;98002.75;;;8.82;100.00
34297;BME280;20564;42.902;25.336;2022-12-18T00:16:25;97995.56;;;8.84;100.00
34297;BME280;20564;42.902;25.336;2022-12-18T00:18:55;97999.38;;;8.80;100.00
34297;BME280;20564;42.902;25.336;2022-12-18T00:21:22;98003.44;;;8.84;100.00
34297;BME280;20564;42.902;25.336;2022-12-18T00:23:50;98009.25;;;8.77;100.00
34297;BME280;20564;42.902;25.336;2022-12-18T00:26:22;98010.41;;;8.73;100.00
34297;BME280;20564;42.902;25.336;2022-12-18T00:28:50;98007.06;;;8.71;100.00
34297;BME280;20564;42.902;25.336;2022-12-18T00:31:20;98017.03;;;8.78;100.00
34297;BME280;20564;42.902;25.336;2022-12-18T00:33:48;98011.69;;;8.67;100.00
34297;BME280;20564;42.902;25.336;2022-12-18T00:36:23;98019.34;;;8.70;100.00
34297;BME280;20564;42.902;25.336;2022-12-18T00:38:51;98019.56;;;8.67;100.00
34297;BME280;20564;42.902;25.336;2022-12-18T00:41:18;98028.16;;;8.69;100.00
34297;BME280;20564;42.902;25.336;2022-12-18T00:44:06;98030.91;;;8.67;100.00
34297;BME280;20564;42.902;25.336;2022-12-18T00:46:33;98029.00;;;8.69;100.00
34297;BME280;20564;42.902;25.336;2022-12-18T00:49:01;98031.53;;;8.71;100.00
34297;BME280;20564;42.902;25.336;2022-12-18T00:51:31;98035.31;;;8.67;100.00
34297;BME280;20564;42.902;25.336;2022-12-18T00:53:58;98027.31;;;8.68;100.00
34297;BME280;20564;42.902;25.336;2022-12-18T00:56:26;98035.94;;;8.71;100.00
34297;BME280;20564;42.902;25.336;2022-12-18T00:58:53;98043.91;;;8.69;100.00
34297;BME280;20564;42.902;25.336;2022-12-18T01:01:20;98035.53;;;8.64;100.00
34297;BME280;20564;42.902;25.336;2022-12-18T01:03:48;98050.81;;;8.70;100.00
34297;BME280;20564;42.902;25.336;2022-12-18T01:06:16;98046.53;;;8.69;100.00
34297;BME280;20564;42.902;25.336;2022-12-18T01:08:44;98048.94;;;8.72;100.00
34297;BME280;20564;42.902;25.336;2022-12-18T01:11:17;98047.50;;;8.68;100.00
34297;BME280;20564;42.902;25.336;2022-12-18T01:13:45;98038.56;;;8.58;100.00
34297;BME280;20564;42.902;25.336;2022-12-18T01:16:13;98044.16;;;8.53;100.00
34297;BME280;20564;42.902;25.336;2022-12-18T01:18:41;98047.50;;;8.55;100.00
34297;BME280;20564;42.902;25.336;2022-12-18T01:21:10;98054.84;;;8.50;100.00
34297;BME280;20564;42.902;25.336;2022-12-18T01:23:37;98050.22;;;8.54;100.00
34297;BME280;20564;42.902;25.336;2022-12-18T01:26:07;98060.53;;;8.57;100.00
34297;BME280;20564;42.902;25.336;2022-12-18T01:28:35;98058.09;;;8.54;100.00
34297;BME280;20564;42.902;25.336;2022-12-18T01:31:23;98053.16;;;8.62;100.00
34297;BME280;20564;42.902;25.336;2022-12-18T01:33:52;98052.22;;;8.63;100.00
34297;BME280;20564;42.902;25.336;2022-12-18T01:36:25;98055.06;;;8.60;100.00
34297;BME280;20564;42.902;25.336;2022-12-18T01:38:52;98057.16;;;8.55;100.00
34297;BME280;20564;42.902;25.336;2022-12-18T01:41:23;98059.69;;;8.56;100.00
34297;BME280;20564;42.902;25.336;2022-12-18T01:43:57;98059.56;;;8.58;100.00
34297;BME280;20564;42.902;25.336;2022-12-18T01:46:25;98053.38;;;8.59;100.00
34297;BME280;20564;42.902;25.336;2022-12-18T01:48:58;98055.56;;;8.65;100.00
34297;BME280;20564;42.902;25.336;2022-12-18T01:51:27;98051.06;;;8.67;100.00
34297;BME280;20564;42.902;25.336;2022-12-18T01:53:57;98049.69;;;8.61;100.00
34297;BME280;20564;42.902;25.336;2022-12-18T01:56:24;98061.56;;;8.67;100.00
34297;BME280;20564;42.902;25.336;2022-12-18T01:59:03;98061.78;;;8.64;100.00
34297;BME280;20564;42.902;25.336;2022-12-18T02:01:32;98058.31;;;8.63;100.00
34297;BME280;20564;42.902;25.336;2022-12-18T02:04:21;98060.69;;;8.66;100.00
34297;BME280;20564;42.902;25.336;2022-12-18T02:06:52;98066.06;;;8.65;100.00
34297;BME280;20564;42.902;25.336;2022-12-18T02:09:31;98067.22;;;8.61;100.00
34297;BME280;20564;42.902;25.336;2022-12-18T02:12:16;98060.53;;;8.57;100.00
34297;BME280;20564;42.902;25.336;2022-12-18T02:18:05;98064.50;;;8.50;100.00
34297;BME280;20564;42.902;25.336;2022-12-18T02:29:26;98070.03;;;8.32;100.00
34297;BME280;20564;42.902;25.336;2022-12-18T02:31:58;98070.16;;;8.31;100.00
34297;BME280;20564;42.902;25.336;2022-12-18T02:34:30;98077.91;;;8.32;100.00
34297;BME280;20564;42.902;25.336;2022-12-18T02:37:00;98070.63;;;8.37;100.00
34297;BME280;20564;42.902;25.336;2022-12-18T02:39:30;98084.44;;;8.39;100.00
34297;BME280;20564;42.902;25.336;2022-12-18T02:41:58;98079.94;;;8.41;100.00
34297;BME280;20564;42.902;25.336;2022-12-18T02:44:26;98084.44;;;8.39;100.00
34297;BME280;20564;42.902;25.336;2022-12-18T02:46:53;98104.28;;;8.43;100.00
34297;BME280;20564;42.902;25.336;2022-12-18T02:49:38;98101.66;;;8.43;100.00
34297;BME280;20564;42.902;25.336;2022-12-18T02:52:25;98103.81;;;8.37;100.00
34297;BME280;20564;42.902;25.336;2022-12-18T03:00:12;98111.69;;;8.37;100.00
34297;BME280;20564;42.902;25.336;2022-12-18T03:02:57;98109.38;;;8.32;100.00
34297;BME280;20564;42.902;25.336;2022-12-18T03:05:33;98120.06;;;8.29;100.00
34297;BME280;20564;42.902;25.336;2022-12-18T03:08:07;98105.50;;;8.25;100.00
34297;BME280;20564;42.902;25.336;2022-12-18T03:10:44;98119.16;;;8.30;100.00
34297;BME280;20564;42.902;25.336;2022-12-18T03:13:19;98127.22;;;8.27;100.00
34297;BME280;20564;42.902;25.336;2022-12-18T03:15:51;98128.38;;;8.23;100.00
34297;BME280;20564;42.902;25.336;2022-12-18T03:18:26;98122.56;;;8.18;100.00
34297;BME280;20564;42.902;25.336;2022-12-18T03:20:59;98138.50;;;8.15;100.00
34297;BME280;20564;42.902;25.336;2022-12-18T03:23:35;98142.28;;;8.11;100.00
34297;BME280;20564;42.902;25.336;2022-12-18T03:26:07;98144.56;;;8.03;100.00
34297;BME280;20564;42.902;25.336;2022-12-18T03:28:39;98158.31;;;7.93;100.00
34297;BME280;20564;42.902;25.336;2022-12-18T03:31:10;98161.84;;;7.92;100.00
34297;BME280;20564;42.902;25.336;2022-12-18T03:33:52;98161.75;;;7.94;100.00
34297;BME280;20564;42.902;25.336;2022-12-18T03:36:20;98167.72;;;7.96;100.00
34297;BME280;20564;42.902;25.336;2022-12-18T03:38:47;98168.03;;;7.91;100.00
34297;BME280;20564;42.902;25.336;2022-12-18T03:41:33;98184.22;;;7.98;100.00
34297;BME280;20564;42.902;25.336;2022-12-18T03:44:15;98185.22;;;7.95;100.00
34297;BME280;20564;42.902;25.336;2022-12-18T03:47:10;98181.88;;;7.93;100.00
34297;BME280;20564;42.902;25.336;2022-12-18T03:52:31;98204.53;;;7.94;100.00
34297;BME280;20564;42.902;25.336;2022-12-18T03:55:03;98197.63;;;7.93;100.00
34297;BME280;20564;42.902;25.336;2022-12-18T03:57:32;98204.53;;;7.94;100.00
34297;BME280;20564;42.902;25.336;2022-12-18T04:00:08;98207.88;;;7.96;100.00
34297;BME280;20564;42.902;25.336;2022-12-18T04:02:39;98209.03;;;7.92;100.00
34297;BME280;20564;42.902;25.336;2022-12-18T04:05:09;98213.53;;;7.90;100.00
34297;BME280;20564;42.902;25.336;2022-12-18T04:07:38;98213.72;;;7.87;100.00
34297;BME280;20564;42.902;25.336;2022-12-18T04:10:07;98207.19;;;7.80;100.00
34297;BME280;20564;42.902;25.336;2022-12-18T04:12:37;98223.13;;;7.77;100.00
34297;BME280;20564;42.902;25.336;2022-12-18T04:15:05;98231.09;;;7.76;100.00
34297;BME280;20564;42.902;25.336;2022-12-18T04:17:32;98227.22;;;7.81;100.00
34297;BME280;20564;42.902;25.336;2022-12-18T04:19:59;98227.44;;;7.64;100.00
34297;BME280;20564;42.902;25.336;2022-12-18T04:22:26;98236.44;;;7.60;100.00
34297;BME280;20564;42.902;25.336;2022-12-18T04:24:53;98237.00;;;7.65;100.00
34297;BME280;20564;42.902;25.336;2022-12-18T04:27:21;98238.66;;;7.66;100.00
34297;BME280;20564;42.902;25.336;2022-12-18T04:29:51;98246.63;;;7.64;100.00
34297;BME280;20564;42.902;25.336;2022-12-18T04:32:18;98252.78;;;7.63;100.00
34297;BME280;20564;42.902;25.336;2022-12-18T04:34:45;98253.63;;;7.64;100.00
34297;BME280;20564;42.902;25.336;2022-12-18T04:37:12;98260.75;;;7.62;100.00
34297;BME280;20564;42.902;25.336;2022-12-18T04:39:39;98263.38;;;7.62;100.00
34297;BME280;20564;42.902;25.336;2022-12-18T04:42:06;98275.47;;;7.64;100.00
34297;BME280;20564;42.902;25.336;2022-12-18T04:44:34;98275.53;;;7.63;100.00
34297;BME280;20564;42.902;25.336;2022-12-18T04:47:01;98278.16;;;7.63;100.00
34297;BME280;20564;42.902;25.336;2022-12-18T04:49:28;98278.91;;;7.65;100.00
34297;BME280;20564;42.902;25.336;2022-12-18T04:51:55;98282.09;;;7.56;100.00
34297;BME280;20564;42.902;25.336;2022-12-18T04:54:22;98294.47;;;7.54;100.00
34297;BME280;20564;42.902;25.336;2022-12-18T04:56:49;98294.66;;;7.51;100.00
34297;BME280;20564;42.902;25.336;2022-12-18T04:59:16;98297.25;;;7.51;100.00
34297;BME280;20564;42.902;25.336;2022-12-18T05:01:43;98296.50;;;7.48;100.00
34297;BME280;20564;42.902;25.336;2022-12-18T05:04:10;98300.44;;;7.41;100.00
34297;BME280;20564;42.902;25.336;2022-12-18T05:06:38;98302.31;;;7.39;100.00
34297;BME280;20564;42.902;25.336;2022-12-18T05:09:05;98303.88;;;7.42;100.00
34297;BME280;20564;42.902;25.336;2022-12-18T05:11:32;98305.41;;;7.32;100.00
34297;BME280;20564;42.902;25.336;2022-12-18T05:13:59;98317.28;;;7.37;100.00
34297;BME280;20564;42.902;25.336;2022-12-18T05:16:26;98314.38;;;7.42;100.00
34297;BME280;20564;42.902;25.336;2022-12-18T05:18:53;98312.78;;;7.39;100.00
34297;BME280;20564;42.902;25.336;2022-12-18T05:21:21;98324.78;;;7.43;100.00
34297;BME280;20564;42.902;25.336;2022-12-18T05:23:48;98322.31;;;7.40;100.00
34297;BME280;20564;42.902;25.336;2022-12-18T05:26:16;98326.63;;;7.41;100.00
34297;BME280;20564;42.902;25.336;2022-12-18T05:28:44;98329.34;;;7.40;100.00
34297;BME280;20564;42.902;25.336;2022-12-18T05:31:11;98333.75;;;7.39;100.00
34297;BME280;20564;42.902;25.336;2022-12-18T05:33:39;98337.28;;;7.38;100.00
34297;BME280;20564;42.902;25.336;2022-12-18T05:36:08;98338.22;;;7.37;100.00
34297;BME280;20564;42.902;25.336;2022-12-18T05:38:37;98339.16;;;7.36;100.00
34297;BME280;20564;42.902;25.336;2022-12-18T05:41:05;98347.31;;;7.46;100.00
34297;BME280;20564;42.902;25.336;2022-12-18T05:43:34;98347.47;;;7.29;100.00
34297;BME280;20564;42.902;25.336;2022-12-18T05:46:05;98348.69;;;7.23;100.00
34297;BME280;20564;42.902;25.336;2022-12-18T05:48:33;98350.16;;;7.27;100.00
34297;BME280;20564;42.902;25.336;2022-12-18T05:51:05;98351.88;;;7.28;100.00
34297;BME280;20564;42.902;25.336;2022-12-18T05:53:33;98351.66;;;7.31;100.00
34297;BME280;20564;42.902;25.336;2022-12-18T05:56:03;98360.47;;;7.30;100.00
34297;BME280;20564;42.902;25.336;2022-12-18T05:58:31;98356.84;;;7.33;100.00
34297;BME280;20564;42.902;25.336;2022-12-18T06:01:05;98361.63;;;7.40;100.00
34297;BME280;20564;42.902;25.336;2022-12-18T06:03:33;98361.63;;;7.40;100.00
34297;BME280;20564;42.902;25.336;2022-12-18T06:06:00;98367.22;;;7.34;100.00
34297;BME280;20564;42.902;25.336;2022-12-18T06:08:27;98367.38;;;7.31;100.00
34297;BME280;20564;42.902;25.336;2022-12-18T06:10:54;98366.09;;;7.24;100.00
34297;BME280;20564;42.902;25.336;2022-12-18T06:13:22;98372.63;;;7.31;100.00
34297;BME280;20564;42.902;25.336;2022-12-18T06:15:49;98375.63;;;7.25;100.00
34297;BME280;20564;42.902;25.336;2022-12-18T06:18:16;98376.75;;;7.21;100.00
34297;BME280;20564;42.902;25.336;2022-12-18T06:20:43;98394.16;;;7.36;100.00
34297;BME280;20564;42.902;25.336;2022-12-18T06:23:10;98395.63;;;7.26;100.00
34297;BME280;20564;42.902;25.336;2022-12-18T06:25:39;98402.38;;;7.30;100.00
34297;BME280;20564;42.902;25.336;2022-12-18T06:28:06;98412.50;;;7.36;100.00
34297;BME280;20564;42.902;25.336;2022-12-18T06:30:33;98412.50;;;7.36;100.00
34297;BME280;20564;42.902;25.336;2022-12-18T06:33:00;98430.72;;;7.38;100.00
34297;BME280;20564;42.902;25.336;2022-12-18T06:35:28;98430.06;;;7.34;100.00
34297;BME280;20564;42.902;25.336;2022-12-18T06:37:55;98433.44;;;7.36;100.00
34297;BME280;20564;42.902;25.336;2022-12-18T06:40:22;98434.28;;;7.37;100.00
34297;BME280;20564;42.902;25.336;2022-12-18T06:42:50;98440.31;;;7.39;100.00
34297;BME280;20564;42.902;25.336;2022-12-18T06:45:17;98445.53;;;7.39;100.00
34297;BME280;20564;42.902;25.336;2022-12-18T06:47:44;98445.44;;;7.40;100.00
34297;BME280;20564;42.902;25.336;2022-12-18T06:50:12;98454.06;;;7.42;100.00
34297;BME280;20564;42.902;25.336;2022-12-18T06:52:39;98438.34;;;7.42;100.00
34297;BME280;20564;42.902;25.336;2022-12-18T06:55:09;98454.78;;;7.44;100.00
34297;BME280;20564;42.902;25.336;2022-12-18T06:57:37;98450.16;;;7.49;100.00
34297;BME280;20564;42.902;25.336;2022-12-18T07:00:06;98455.38;;;7.49;100.00
34297;BME280;20564;42.902;25.336;2022-12-18T07:02:33;98458.56;;;7.55;100.00
34297;BME280;20564;42.902;25.336;2022-12-18T07:05:01;98465.66;;;7.53;100.00
34297;BME280;20564;42.902;25.336;2022-12-18T07:07:36;98470.00;;;7.54;100.00
34297;BME280;20564;42.902;25.336;2022-12-18T07:10:03;98472.03;;;7.48;100.00
34297;BME280;20564;42.902;25.336;2022-12-18T07:12:30;98474.81;;;7.45;100.00
34297;BME280;20564;42.902;25.336;2022-12-18T07:14:58;98472.41;;;7.42;100.00
34297;BME280;20564;42.902;25.336;2022-12-18T07:17:25;98473.31;;;7.41;100.00
34297;BME280;20564;42.902;25.336;2022-12-18T07:19:52;98471.63;;;7.40;100.00
34297;BME280;20564;42.902;25.336;2022-12-18T07:22:19;98473.31;;;7.41;100.00
34297;BME280;20564;42.902;25.336;2022-12-18T07:24:49;98469.94;;;7.39;100.00
34297;BME280;20564;42.902;25.336;2022-12-18T07:27:16;98472.97;;;7.47;100.00
34297;BME280;20564;42.902;25.336;2022-12-18T07:29:43;98480.91;;;7.46;99.66
34297;BME280;20564;42.902;25.336;2022-12-18T07:32:11;98478.47;;;7.43;98.75
34297;BME280;20564;42.902;25.336;2022-12-18T07:34:38;98484.09;;;7.51;100.00
34297;BME280;20564;42.902;25.336;2022-12-18T07:37:06;98479.69;;;7.52;98.01
34297;BME280;20564;42.902;25.336;2022-12-18T07:39:33;98490.19;;;7.52;97.96
34297;BME280;20564;42.902;25.336;2022-12-18T07:42:04;98484.59;;;7.58;96.29
34297;BME280;20564;42.902;25.336;2022-12-18T07:44:51;98490.69;;;7.58;95.15
34297;BME280;20564;42.902;25.336;2022-12-18T07:47:19;98492.34;;;7.59;95.01
34297;BME280;20564;42.902;25.336;2022-12-18T07:49:46;98494.63;;;7.65;95.13
34297;BME280;20564;42.902;25.336;2022-12-18T07:52:13;98504.84;;;7.70;96.19
34297;BME280;20564;42.902;25.336;2022-12-18T07:54:40;98506.16;;;7.77;94.76
34297;BME280;20564;42.902;25.336;2022-12-18T07:57:08;98502.41;;;7.81;95.53
34297;BME280;20564;42.902;25.336;2022-12-18T07:59:55;98508.25;;;7.86;93.27
34297;BME280;20564;42.902;25.336;2022-12-18T08:02:22;98503.75;;;7.88;94.00
34297;BME280;20564;42.902;25.336;2022-12-18T08:04:49;98493.44;;;7.85;93.26
34297;BME280;20564;42.902;25.336;2022-12-18T08:07:18;98494.41;;;7.98;94.68
34297;BME280;20564;42.902;25.336;2022-12-18T08:09:45;98497.75;;;8.01;92.34
34297;BME280;20564;42.902;25.336;2022-12-18T08:12:12;98493.84;;;8.08;91.64
34297;BME280;20564;42.902;25.336;2022-12-18T08:14:39;98497.13;;;8.11;89.93
34297;BME280;20564;42.902;25.336;2022-12-18T08:17:06;98507.44;;;8.14;92.43
34297;BME280;20564;42.902;25.336;2022-12-18T08:19:33;98507.34;;;8.16;90.24
34297;BME280;20564;42.902;25.336;2022-12-18T08:22:01;98500.81;;;8.23;87.45
34297;BME280;20564;42.902;25.336;2022-12-18T08:24:28;98504.91;;;8.27;90.83
34297;BME280;20564;42.902;25.336;2022-12-18T08:26:55;98505.13;;;8.38;87.11
34297;BME280;20564;42.902;25.336;2022-12-18T08:29:43;98511.13;;;8.40;86.21
34297;BME280;20564;42.902;25.336;2022-12-18T08:32:11;98505.28;;;8.35;85.21
34297;BME280;20564;42.902;25.336;2022-12-18T08:34:38;98502.28;;;8.27;83.67
34297;BME280;20564;42.902;25.336;2022-12-18T08:37:05;98513.91;;;8.23;84.79
34297;BME280;20564;42.902;25.336;2022-12-18T08:39:32;98508.06;;;8.04;83.73
34297;BME280;20564;42.902;25.336;2022-12-18T08:42:01;98508.16;;;7.88;84.22
34297;BME280;20564;42.902;25.336;2022-12-18T08:44:46;98513.50;;;7.86;85.82
34297;BME280;20564;42.902;25.336;2022-12-18T08:47:13;98502.16;;;8.00;86.07
34297;BME280;20564;42.902;25.336;2022-12-18T08:49:41;98504.88;;;7.98;83.20
34297;BME280;20564;42.902;25.336;2022-12-18T08:52:08;98509.38;;;7.96;84.10
34297;BME280;20564;42.902;25.336;2022-12-18T08:54:36;98501.50;;;7.96;82.97
34297;BME280;20564;42.902;25.336;2022-12-18T08:57:03;98501.16;;;8.03;83.44
34297;BME280;20564;42.902;25.336;2022-12-18T08:59:30;98510.88;;;8.15;83.50
34297;BME280;20564;42.902;25.336;2022-12-18T09:01:57;98503.59;;;8.20;84.16
34297;BME280;20564;42.902;25.336;2022-12-18T09:04:25;98506.97;;;8.36;86.67
34297;BME280;20564;42.902;25.336;2022-12-18T09:06:52;98510.75;;;8.47;82.54
34297;BME280;20564;42.902;25.336;2022-12-18T09:09:19;98509.97;;;8.59;83.65
34297;BME280;20564;42.902;25.336;2022-12-18T09:11:50;98508.66;;;8.52;79.16
34297;BME280;20564;42.902;25.336;2022-12-18T09:14:17;98509.81;;;8.48;77.62
34297;BME280;20564;42.902;25.336;2022-12-18T09:16:44;98502.31;;;8.41;77.01
34297;BME280;20564;42.902;25.336;2022-12-18T09:19:11;98503.25;;;8.40;76.43
34297;BME280;20564;42.902;25.336;2022-12-18T09:21:38;98506.09;;;8.37;77.21
34297;BME280;20564;42.902;25.336;2022-12-18T09:24:13;98514.69;;;8.54;79.00
34297;BME280;20564;42.902;25.336;2022-12-18T09:26:40;98506.25;;;8.63;77.32
34297;BME280;20564;42.902;25.336;2022-12-18T09:29:14;98510.25;;;8.68;76.77
34297;BME280;20564;42.902;25.336;2022-12-18T09:31:44;98510.56;;;8.64;75.87
34297;BME280;20564;42.902;25.336;2022-12-18T09:34:12;98496.78;;;8.46;75.78
34297;BME280;20564;42.902;25.336;2022-12-18T09:36:39;98508.47;;;8.55;75.84
34297;BME280;20564;42.902;25.336;2022-12-18T09:39:06;98513.56;;;8.43;75.75
34297;BME280;20564;42.902;25.336;2022-12-18T09:41:44;98520.88;;;8.53;77.89
34297;BME280;20564;42.902;25.336;2022-12-18T09:44:14;98522.56;;;8.54;76.91
34297;BME280;20564;42.902;25.336;2022-12-18T09:47:33;98518.44;;;8.50;77.24
34297;BME280;20564;42.902;25.336;2022-12-18T09:49:41;98519.94;;;8.54;76.51
34297;BME280;20564;42.902;25.336;2022-12-18T09:52:33;98509.06;;;8.45;75.20
34297;BME280;20564;42.902;25.336;2022-12-18T09:55:26;98516.00;;;8.47;75.58
34297;BME280;20564;42.902;25.336;2022-12-18T10:00:38;98521.06;;;8.50;75.04
34297;BME280;20564;42.902;25.336;2022-12-18T10:03:11;98516.66;;;8.50;74.90
34297;BME280;20564;42.902;25.336;2022-12-18T10:06:11;98516.00;;;8.47;73.15
34297;BME280;20564;42.902;25.336;2022-12-18T10:11:41;98517.66;;;8.48;75.99
34297;BME280;20564;42.902;25.336;2022-12-18T10:14:54;98514.22;;;8.47;76.63
34297;BME280;20564;42.902;25.336;2022-12-18T10:17:30;98506.81;;;8.54;73.70
34297;BME280;20564;42.902;25.336;2022-12-18T10:20:14;98503.06;;;8.58;74.48
34297;BME280;20564;42.902;25.336;2022-12-18T10:28:19;98513.06;;;8.80;71.99
34297;BME280;20564;42.902;25.336;2022-12-18T10:30:47;98510.72;;;8.75;66.58
34297;BME280;20564;42.902;25.336;2022-12-18T10:33:19;98518.44;;;8.64;69.33
34297;BME280;20564;42.902;25.336;2022-12-18T10:35:48;98510.94;;;8.58;67.33
34297;BME280;20564;42.902;25.336;2022-12-18T10:43:36;98492.16;;;8.35;65.76
34297;BME280;20564;42.902;25.336;2022-12-18T10:51:36;98511.72;;;8.30;66.53
34297;BME280;20564;42.902;25.336;2022-12-18T10:54:19;98513.25;;;8.34;67.09
34297;BME280;20564;42.902;25.336;2022-12-18T10:56:48;98512.50;;;8.32;65.15
34297;BME280;20564;42.902;25.336;2022-12-18T10:59:17;98516.19;;;8.43;65.46
34297;BME280;20564;42.902;25.336;2022-12-18T11:01:50;98517.31;;;8.39;62.43
34297;BME280;20564;42.902;25.336;2022-12-18T11:04:26;98518.25;;;8.38;62.86
34297;BME280;20564;42.902;25.336;2022-12-18T11:07:00;98523.31;;;8.41;64.80
34297;BME280;20564;42.902;25.336;2022-12-18T11:09:38;98526.50;;;8.47;63.40
34297;BME280;20564;42.902;25.336;2022-12-18T11:17:27;98526.28;;;8.35;62.76
34297;BME280;20564;42.902;25.336;2022-12-18T11:19:59;98518.59;;;8.32;60.78
34297;BME280;20564;42.902;25.336;2022-12-18T11:22:35;98517.94;;;8.29;61.16
34297;BME280;20564;42.902;25.336;2022-12-18T11:25:18;98523.34;;;8.26;61.66
34297;BME280;20564;42.902;25.336;2022-12-18T11:28:05;98523.84;;;8.32;60.71
34297;BME280;20564;42.902;25.336;2022-12-18T11:30:36;98521.31;;;8.31;60.04
34297;BME280;20564;42.902;25.336;2022-12-18T11:33:09;98523.66;;;8.35;61.93
34297;BME280;20564;42.902;25.336;2022-12-18T11:35:52;98535.13;;;8.49;61.08
34297;BME280;20564;42.902;25.336;2022-12-18T11:43:56;98529.75;;;8.64;58.05
34297;BME280;20564;42.902;25.336;2022-12-18T11:46:37;98529.28;;;8.58;58.10
34297;BME280;20564;42.902;25.336;2022-12-18T11:49:24;98534.47;;;8.59;56.89
34297;BME280;20564;42.902;25.336;2022-12-18T11:52:00;98526.13;;;8.53;58.85
34297;BME280;20564;42.902;25.336;2022-12-18T11:54:30;98525.94;;;8.56;56.89
34297;BME280;20564;42.902;25.336;2022-12-18T11:57:29;98527.06;;;8.37;56.73
34297;BME280;20564;42.902;25.336;2022-12-18T12:02:49;98530.06;;;8.45;56.56
34297;BME280;20564;42.902;25.336;2022-12-18T12:05:57;98528.09;;;8.49;57.73
34297;BME280;20564;42.902;25.336;2022-12-18T12:19:56;98530.59;;;8.65;57.72
34297;BME280;20564;42.902;25.336;2022-12-18T12:25:38;98529.75;;;8.64;59.56
34297;BME280;20564;42.902;25.336;2022-12-18T12:36:19;98532.28;;;8.52;57.12
34297;BME280;20564;42.902;25.336;2022-12-18T12:38:53;98537.75;;;8.49;60.43
34297;BME280;20564;42.902;25.336;2022-12-18T12:41:24;98532.56;;;8.47;58.31
34297;BME280;20564;42.902;25.336;2022-12-18T12:45:09;98537.09;;;8.45;59.98
34297;BME280;20564;42.902;25.336;2022-12-18T12:47:22;98540.59;;;8.30;58.29
34297;BME280;20564;42.902;25.336;2022-12-18T12:49:53;98542.94;;;8.20;58.31
34297;BME280;20564;42.902;25.336;2022-12-18T12:52:35;98542.56;;;8.12;59.49
34297;BME280;20564;42.902;25.336;2022-12-18T12:55:04;98559.97;;;8.13;58.44
34297;BME280;20564;42.902;25.336;2022-12-18T12:57:47;98549.84;;;8.07;57.63
34297;BME280;20564;42.902;25.336;2022-12-18T13:00:19;98557.81;;;8.05;60.34
34297;BME280;20564;42.902;25.336;2022-12-18T13:03:08;98562.00;;;8.08;59.70
34297;BME280;20564;42.902;25.336;2022-12-18T13:05:53;98566.53;;;8.06;58.43
34297;BME280;20564;42.902;25.336;2022-12-18T13:08:24;98564.91;;;8.03;57.44
34297;BME280;20564;42.902;25.336;2022-12-18T13:10:57;98574.38;;;8.06;59.54
34297;BME280;20564;42.902;25.336;2022-12-18T13:14:03;98573.81;;;8.15;59.45
34297;BME280;20564;42.902;25.336;2022-12-18T13:16:31;98572.91;;;8.16;58.56
34297;BME280;20564;42.902;25.336;2022-12-18T13:18:58;98571.59;;;8.09;58.19
34297;BME280;20564;42.902;25.336;2022-12-18T13:23:54;98582.16;;;8.07;58.90
34297;BME280;20564;42.902;25.336;2022-12-18T13:28:56;98581.47;;;8.04;59.20
34297;BME280;20564;42.902;25.336;2022-12-18T13:34:16;98574.22;;;8.09;59.23
34297;BME280;20564;42.902;25.336;2022-12-18T13:36:56;98582.47;;;8.17;61.08
34297;BME280;20564;42.902;25.336;2022-12-18T13:39:33;98580.97;;;8.13;59.69
34297;BME280;20564;42.902;25.336;2022-12-18T13:44:37;98592.78;;;8.20;59.32
34297;BME280;20564;42.902;25.336;2022-12-18T13:47:30;98588.25;;;8.22;60.18
34297;BME280;20564;42.902;25.336;2022-12-18T13:49:58;98593.69;;;8.19;58.82
34297;BME280;20564;42.902;25.336;2022-12-18T13:52:28;98595.41;;;8.20;59.32
34297;BME280;20564;42.902;25.336;2022-12-18T13:54:57;98594.47;;;8.21;57.47
34297;BME280;20564;42.902;25.336;2022-12-18T13:57:36;98607.00;;;8.16;58.73
34297;BME280;20564;42.902;25.336;2022-12-18T14:00:36;98612.94;;;8.04;58.85
34297;BME280;20564;42.902;25.336;2022-12-18T14:03:23;98614.16;;;7.98;60.24
34297;BME280;20564;42.902;25.336;2022-12-18T14:06:06;98611.44;;;8.00;60.53
34297;BME280;20564;42.902;25.336;2022-12-18T14:08:38;98609.59;;;8.02;59.59
34297;BME280;20564;42.902;25.336;2022-12-18T14:11:19;98607.03;;;8.00;59.86
34297;BME280;20564;42.902;25.336;2022-12-18T14:13:52;98610.47;;;7.86;58.69
34297;BME280;20564;42.902;25.336;2022-12-18T14:16:19;98608.38;;;7.77;60.85
34297;BME280;20564;42.902;25.336;2022-12-18T14:18:55;98614.72;;;7.73;59.71
34297;BME280;20564;42.902;25.336;2022-12-18T14:21:49;98619.97;;;7.73;59.73
34297;BME280;20564;42.902;25.336;2022-12-18T14:24:21;98625.38;;;7.70;60.06
34297;BME280;20564;42.902;25.336;2022-12-18T14:26:49;98630.13;;;7.63;58.68
34297;BME280;20564;42.902;25.336;2022-12-18T14:29:26;98630.28;;;7.60;60.37
34297;BME280;20564;42.902;25.336;2022-12-18T14:34:44;98637.75;;;7.36;57.57
34297;BME280;20564;42.902;25.336;2022-12-18T14:37:14;98637.56;;;7.23;59.32
34297;BME280;20564;42.902;25.336;2022-12-18T14:42:22;98641.97;;;7.23;57.56
34297;BME280;20564;42.902;25.336;2022-12-18T14:44:49;98639.09;;;7.12;56.88
34297;BME280;20564;42.902;25.336;2022-12-18T14:47:36;98646.50;;;7.04;57.56
34297;BME280;20564;42.902;25.336;2022-12-18T14:50:12;98648.19;;;7.05;57.96
34297;BME280;20564;42.902;25.336;2022-12-18T14:52:40;98655.63;;;6.96;57.42
34297;BME280;20564;42.902;25.336;2022-12-18T14:55:16;98662.53;;;6.97;57.14